createdAt,value
2023-02-25T00:02:15.518Z,2.65
2023-02-25T00:04:43.181Z,2.50
2023-02-25T00:07:11.041Z,2.90
2023-02-25T00:09:38.696Z,2.78
2023-02-25T00:12:06.626Z,2.90
2023-02-25T00:14:34.496Z,2.95
2023-02-25T00:17:03.550Z,2.67
2023-02-25T00:19:31.191Z,2.95
2023-02-25T00:21:58.803Z,2.65
2023-02-25T00:24:27.402Z,3.55
2023-02-25T00:26:55.089Z,3.75
2023-02-25T00:29:23.005Z,3.08
2023-02-25T00:31:50.966Z,3.30
2023-02-25T00:34:20.073Z,2.92
2023-02-25T00:36:48.252Z,3.03
2023-02-25T00:39:15.981Z,2.83
2023-02-25T00:41:43.723Z,3.50
2023-02-25T00:44:11.422Z,3.20
2023-02-25T00:46:39.083Z,2.75
2023-02-25T00:49:06.737Z,3.30
2023-02-25T00:51:35.887Z,2.38
2023-02-25T00:54:03.509Z,2.47
2023-02-25T00:56:31.142Z,2.88
2023-02-25T00:59:00.424Z,2.38
2023-02-25T01:01:29.070Z,2.38
2023-02-25T01:03:57.454Z,2.42
2023-02-25T01:06:26.000Z,2.13
2023-02-25T01:08:55.142Z,2.58
2023-02-25T01:11:27.177Z,2.85
2023-02-25T01:13:55.302Z,3.63
2023-02-25T01:16:25.428Z,2.50
2023-02-25T01:18:53.692Z,2.42
2023-02-25T01:21:22.398Z,3.03
2023-02-25T01:23:50.798Z,2.58
2023-02-25T01:26:19.792Z,2.90
2023-02-25T01:28:47.395Z,4.53
2023-02-25T01:31:18.608Z,2.83
2023-02-25T01:33:46.248Z,2.72
2023-02-25T01:36:13.885Z,2.53
2023-02-25T01:38:41.490Z,4.13
2023-02-25T01:41:09.157Z,3.72
2023-02-25T01:43:38.203Z,2.78
2023-02-25T01:46:06.885Z,3.28
2023-02-25T01:48:35.791Z,1.85
2023-02-25T01:51:04.475Z,2.50
2023-02-25T01:53:34.647Z,3.05
2023-02-25T01:56:02.887Z,2.65
2023-02-25T01:58:31.321Z,2.85
2023-02-25T02:01:00.381Z,2.55
2023-02-25T02:03:31.134Z,2.65
2023-02-25T02:06:02.402Z,2.25
2023-02-25T02:08:30.813Z,2.60
2023-02-25T02:10:58.603Z,2.85
2023-02-25T02:13:26.278Z,1.70
2023-02-25T02:15:59.635Z,1.98
2023-02-25T02:18:31.975Z,2.30
2023-02-25T02:21:05.605Z,1.88
2023-02-25T02:23:42.194Z,1.55
2023-02-25T02:26:27.489Z,2.13
2023-02-25T02:29:06.226Z,2.95
2023-02-25T02:31:40.224Z,2.25
2023-02-25T02:34:16.852Z,2.45
2023-02-25T02:36:50.566Z,5.05
2023-02-25T02:39:20.940Z,2.38
2023-02-25T02:41:51.426Z,3.05
2023-02-25T02:44:22.798Z,2.83
2023-02-25T02:46:53.366Z,2.45
2023-02-25T02:49:22.944Z,2.42
2023-02-25T02:51:52.237Z,2.63
2023-02-25T02:54:20.469Z,2.72
2023-02-25T02:56:49.618Z,2.22
2023-02-25T02:59:21.659Z,2.10
2023-02-25T03:01:52.160Z,2.35
2023-02-25T03:04:24.507Z,2.78
2023-02-25T03:06:56.111Z,2.28
2023-02-25T03:09:25.295Z,2.08
2023-02-25T03:11:53.202Z,2.10
2023-02-25T03:14:20.867Z,3.28
2023-02-25T03:16:51.297Z,2.15
2023-02-25T03:19:20.165Z,3.15
2023-02-25T03:21:54.806Z,2.08
2023-02-25T03:24:23.941Z,2.28
2023-02-25T03:26:52.067Z,3.70
2023-02-25T03:29:20.893Z,1.73
2023-02-25T03:31:51.760Z,2.30
2023-02-25T03:34:21.058Z,2.70
2023-02-25T03:36:53.308Z,2.13
2023-02-25T03:39:24.161Z,3.42
2023-02-25T03:41:53.335Z,1.73
2023-02-25T03:44:23.464Z,2.15
2023-02-25T03:46:53.655Z,2.55
2023-02-25T03:49:22.713Z,1.65
2023-02-25T03:51:55.315Z,1.60
2023-02-25T03:54:22.928Z,2.50
2023-02-25T03:56:51.899Z,1.95
2023-02-25T03:59:20.242Z,2.20
2023-02-25T04:01:48.857Z,2.25
2023-02-25T04:04:16.655Z,2.70
2023-02-25T04:06:44.320Z,1.92
2023-02-25T04:09:13.375Z,1.45
2023-02-25T04:11:41.020Z,1.85
2023-02-25T04:14:08.672Z,2.10
2023-02-25T04:16:37.013Z,1.75
2023-02-25T04:19:04.643Z,1.70
2023-02-25T04:21:35.390Z,1.70
2023-02-25T04:24:05.551Z,2.08
2023-02-25T04:26:34.729Z,1.40
2023-02-25T04:29:02.341Z,3.95
2023-02-25T04:31:30.432Z,2.42
2023-02-25T04:33:58.291Z,2.95
2023-02-25T04:36:27.791Z,2.15
2023-02-25T04:38:55.619Z,1.45
2023-02-25T04:41:23.430Z,2.25
2023-02-25T04:43:52.373Z,2.70
2023-02-25T04:46:20.049Z,1.75
2023-02-25T04:48:47.865Z,2.15
2023-02-25T04:51:17.032Z,1.48
2023-02-25T04:53:46.697Z,2.13
2023-02-25T04:56:14.439Z,2.63
2023-02-25T04:58:42.065Z,1.70
2023-02-25T05:01:11.109Z,1.42
2023-02-25T05:03:39.095Z,1.88
2023-02-25T05:06:07.645Z,1.58
2023-02-25T05:08:35.695Z,2.13
2023-02-25T05:11:04.046Z,2.45
2023-02-25T05:13:31.684Z,1.90
2023-02-25T05:16:06.686Z,2.35
2023-02-25T05:18:38.467Z,1.35
2023-02-25T05:21:09.964Z,2.33
2023-02-25T05:23:37.555Z,1.55
2023-02-25T05:26:05.780Z,1.65
2023-02-25T05:28:33.435Z,2.38
2023-02-25T05:31:01.388Z,1.52
2023-02-25T05:33:29.825Z,2.28
2023-02-25T05:35:58.821Z,1.65
2023-02-25T05:38:28.106Z,2.17
2023-02-25T05:40:56.061Z,2.20
2023-02-25T05:43:24.031Z,2.25
2023-02-25T05:45:53.799Z,1.80
2023-02-25T05:48:21.469Z,2.22
2023-02-25T05:50:50.573Z,2.55
2023-02-25T05:53:19.840Z,1.98
2023-02-25T05:55:47.790Z,2.45
2023-02-25T05:58:15.483Z,1.73
2023-02-25T06:00:43.725Z,2.15
2023-02-25T06:03:11.681Z,2.20
2023-02-25T06:05:41.412Z,1.90
2023-02-25T06:08:09.063Z,2.38
2023-02-25T06:10:39.300Z,2.28
2023-02-25T06:13:06.965Z,1.92
2023-02-25T06:15:34.590Z,1.88
2023-02-25T06:18:02.286Z,3.25
2023-02-25T06:20:29.922Z,1.63
2023-02-25T06:22:58.277Z,1.90
2023-02-25T06:25:26.561Z,2.38
2023-02-25T06:27:55.757Z,1.67
2023-02-25T06:30:23.519Z,1.50
2023-02-25T06:32:51.218Z,1.42
2023-02-25T06:35:23.327Z,1.70
2023-02-25T06:37:51.351Z,1.55
2023-02-25T06:40:19.963Z,1.35
2023-02-25T06:42:47.866Z,3.10
2023-02-25T06:45:16.973Z,2.28
2023-02-25T06:47:44.616Z,3.03
2023-02-25T06:50:12.602Z,1.27
2023-02-25T06:52:40.561Z,1.60
2023-02-25T06:55:09.800Z,1.83
2023-02-25T06:57:37.606Z,2.33
2023-02-25T07:00:06.501Z,2.28
2023-02-25T07:02:35.547Z,2.42
2023-02-25T07:05:03.171Z,2.10
2023-02-25T07:07:30.814Z,1.98
2023-02-25T07:09:58.485Z,2.35
2023-02-25T07:12:26.197Z,1.83
2023-02-25T07:14:53.905Z,1.42
2023-02-25T07:17:21.670Z,1.35
2023-02-25T07:19:50.652Z,1.60
2023-02-25T07:22:22.221Z,2.70
2023-02-25T07:24:51.270Z,1.95
2023-02-25T07:27:19.054Z,2.80
2023-02-25T07:29:46.676Z,2.30
2023-02-25T07:32:17.600Z,2.17
2023-02-25T07:34:45.556Z,2.33
2023-02-25T07:37:14.834Z,1.60
2023-02-25T07:39:42.425Z,1.73
2023-02-25T07:42:10.045Z,2.10
2023-02-25T07:44:37.646Z,2.08
2023-02-25T07:47:05.277Z,1.30
2023-02-25T07:49:33.020Z,2.47
2023-02-25T07:52:01.030Z,1.92
2023-02-25T07:54:30.078Z,1.90
2023-02-25T07:56:57.838Z,2.00
2023-02-25T07:59:25.434Z,2.40
2023-02-25T08:01:53.096Z,2.05
2023-02-25T08:04:20.746Z,2.33
2023-02-25T08:06:48.409Z,2.22
2023-02-25T08:09:16.142Z,2.50
2023-02-25T08:11:46.393Z,1.98
2023-02-25T08:14:13.977Z,1.60
2023-02-25T08:16:41.645Z,1.58
2023-02-25T08:19:09.289Z,1.50
2023-02-25T08:21:37.432Z,1.52
2023-02-25T08:24:05.385Z,2.28
2023-02-25T08:26:32.963Z,1.52
2023-02-25T08:29:02.164Z,1.65
2023-02-25T08:31:29.912Z,1.17
2023-02-25T08:33:59.545Z,1.70
2023-02-25T08:36:28.538Z,1.63
2023-02-25T08:38:57.384Z,1.63
2023-02-25T08:41:25.910Z,1.23
2023-02-25T08:43:54.639Z,1.02
2023-02-25T08:46:24.647Z,2.28
2023-02-25T08:48:52.998Z,1.35
2023-02-25T08:51:21.677Z,0.98
2023-02-25T08:53:49.514Z,0.98
2023-02-25T08:56:17.815Z,1.00
2023-02-25T08:58:45.445Z,1.35
2023-02-25T09:01:14.344Z,2.03
2023-02-25T09:03:52.755Z,1.20
2023-02-25T09:06:21.455Z,1.40
2023-02-25T09:08:49.175Z,1.10
2023-02-25T09:11:17.120Z,1.60
2023-02-25T09:13:44.901Z,1.85
2023-02-25T09:16:15.764Z,1.85
2023-02-25T09:18:45.914Z,3.13
2023-02-25T09:21:15.214Z,1.48
2023-02-25T09:23:43.146Z,1.75
2023-02-25T09:26:11.325Z,1.73
2023-02-25T09:28:38.937Z,1.83
2023-02-25T09:31:06.970Z,2.05
2023-02-25T09:33:34.858Z,2.13
2023-02-25T09:36:08.004Z,1.65
2023-02-25T09:38:35.737Z,1.52
2023-02-25T09:41:04.015Z,1.40
2023-02-25T09:43:35.775Z,1.65
2023-02-25T09:46:07.075Z,1.67
2023-02-25T09:48:36.688Z,2.13
2023-02-25T09:51:08.849Z,1.42
2023-02-25T09:53:39.696Z,1.60
2023-02-25T09:56:08.676Z,1.35
2023-02-25T09:58:38.196Z,0.98
2023-02-25T10:01:07.083Z,1.58
2023-02-25T10:03:50.433Z,2.40
2023-02-25T10:06:22.838Z,2.75
2023-02-25T10:08:56.917Z,2.92
2023-02-25T10:11:30.639Z,1.45
2023-02-25T10:14:03.545Z,1.15
2023-02-25T10:16:39.312Z,1.58
2023-02-25T10:19:13.495Z,1.40
2023-02-25T10:21:51.785Z,1.58
2023-02-25T10:24:23.602Z,1.98
2023-02-25T10:26:52.712Z,1.45
2023-02-25T10:29:24.492Z,2.13
2023-02-25T10:31:55.794Z,1.85
2023-02-25T10:34:26.051Z,1.40
2023-02-25T10:36:57.115Z,2.03
2023-02-25T10:39:25.153Z,1.10
2023-02-25T10:41:52.920Z,1.38
2023-02-25T10:44:22.683Z,1.10
2023-02-25T10:46:54.126Z,1.90
2023-02-25T10:49:23.100Z,1.38
2023-02-25T10:52:06.115Z,2.10
2023-02-25T10:54:35.438Z,1.33
2023-02-25T10:57:08.464Z,1.85
2023-02-25T10:59:38.630Z,2.38
2023-02-25T11:02:20.538Z,1.90
2023-02-25T11:04:48.498Z,1.75
2023-02-25T11:07:31.644Z,2.65
2023-02-25T11:10:10.515Z,2.53
2023-02-25T11:12:41.798Z,1.83
2023-02-25T11:15:51.506Z,2.20
2023-02-25T11:18:22.275Z,2.85
2023-02-25T11:20:51.600Z,2.20
2023-02-25T11:23:22.768Z,1.45
2023-02-25T11:25:53.740Z,0.75
2023-02-25T11:28:28.130Z,1.55
2023-02-25T11:30:56.138Z,1.10
2023-02-25T11:33:26.289Z,2.35
2023-02-25T11:35:57.966Z,1.00
2023-02-25T11:38:28.302Z,1.20
2023-02-25T11:40:56.360Z,1.25
2023-02-25T11:43:25.166Z,1.30
2023-02-25T11:45:54.701Z,1.20
2023-02-25T11:48:24.989Z,1.50
2023-02-25T11:50:56.513Z,2.05
2023-02-25T11:53:32.052Z,2.35
2023-02-25T11:56:02.060Z,1.25
2023-02-25T11:58:37.779Z,1.65
2023-02-25T12:01:07.690Z,1.63
2023-02-25T12:03:50.175Z,2.55
2023-02-25T12:06:24.634Z,1.90
2023-02-25T12:09:07.393Z,2.15
2023-02-25T12:11:55.729Z,1.70
2023-02-25T12:14:51.235Z,1.85
2023-02-25T12:17:30.607Z,2.08
2023-02-25T12:20:12.917Z,1.83
2023-02-25T12:22:57.474Z,1.83
2023-02-25T12:25:29.399Z,2.00
2023-02-25T12:28:14.869Z,1.77
2023-02-25T12:31:06.312Z,1.90
2023-02-25T12:33:49.333Z,1.15
2023-02-25T12:36:34.008Z,1.67
2023-02-25T12:39:10.638Z,1.05
2023-02-25T12:41:41.946Z,2.08
2023-02-25T12:44:25.923Z,2.08
2023-02-25T12:47:02.099Z,1.60
2023-02-25T12:49:47.348Z,1.05
2023-02-25T12:52:24.939Z,2.03
2023-02-25T12:55:06.150Z,1.70
2023-02-25T12:57:40.926Z,2.03
2023-02-25T13:00:26.502Z,0.88
2023-02-25T13:03:00.777Z,1.40
2023-02-25T13:05:49.706Z,2.00
2023-02-25T13:08:26.055Z,1.52
2023-02-25T13:10:57.814Z,2.13
2023-02-25T13:13:40.344Z,1.20
2023-02-25T13:16:17.737Z,1.23
2023-02-25T13:18:52.710Z,1.35
2023-02-25T13:21:28.265Z,1.40
2023-02-25T13:24:07.409Z,1.65
2023-02-25T13:26:42.185Z,1.08
2023-02-25T13:29:17.988Z,1.15
2023-02-25T13:31:49.679Z,1.73
2023-02-25T13:34:23.317Z,1.27
2023-02-25T13:36:59.937Z,2.03
2023-02-25T13:39:41.764Z,1.33
2023-02-25T13:42:26.526Z,1.13
2023-02-25T13:45:15.297Z,1.48
2023-02-25T13:47:48.900Z,1.48
2023-02-25T13:50:32.920Z,1.75
2023-02-25T13:53:05.808Z,1.38
2023-02-25T13:55:46.361Z,0.98
2023-02-25T13:58:28.858Z,2.28
2023-02-25T14:01:05.341Z,1.65
2023-02-25T14:03:46.199Z,1.05
2023-02-25T14:06:19.576Z,1.70
2023-02-25T14:09:06.661Z,1.70
2023-02-25T14:11:48.586Z,1.58
2023-02-25T14:14:28.972Z,1.50
2023-02-25T14:17:08.638Z,1.92
2023-02-25T14:19:41.387Z,1.52
2023-02-25T14:22:29.774Z,1.40
2023-02-25T14:25:02.771Z,1.27
2023-02-25T14:27:34.515Z,1.25
2023-02-25T14:30:15.072Z,1.00
2023-02-25T14:32:46.214Z,1.17
2023-02-25T14:35:17.014Z,1.50
2023-02-25T14:37:53.532Z,1.10
2023-02-25T14:40:26.148Z,1.02
2023-02-25T14:43:04.172Z,1.05
2023-02-25T14:45:35.943Z,0.90
2023-02-25T14:48:06.082Z,0.85
2023-02-25T14:50:37.938Z,0.90
2023-02-25T14:53:29.230Z,1.08
2023-02-25T14:56:06.024Z,0.70
2023-02-25T14:58:54.561Z,0.45
2023-02-25T15:01:40.971Z,1.30
2023-02-25T15:04:17.156Z,0.82
2023-02-25T15:06:53.173Z,1.25
2023-02-25T15:09:44.526Z,2.03
2023-02-25T15:12:26.163Z,5.75
2023-02-25T15:15:04.457Z,0.82
2023-02-25T15:17:51.272Z,1.27
2023-02-25T15:20:32.942Z,0.75
2023-02-25T15:23:08.433Z,0.82
2023-02-25T15:25:37.892Z,1.10
2023-02-25T15:28:25.687Z,1.60
2023-02-25T15:31:07.474Z,1.30
2023-02-25T15:33:36.333Z,1.23
2023-02-25T15:36:20.086Z,1.13
2023-02-25T15:38:48.769Z,1.40
2023-02-25T15:41:38.207Z,1.40
2023-02-25T15:44:20.747Z,1.02
2023-02-25T15:46:48.874Z,1.20
2023-02-25T15:49:19.985Z,1.27
2023-02-25T15:51:53.356Z,1.63
2023-02-25T15:54:36.076Z,1.10
2023-02-25T15:57:25.518Z,1.10
2023-02-25T15:59:55.533Z,1.58
2023-02-25T16:02:46.295Z,0.55
2023-02-25T16:05:19.719Z,1.15
2023-02-25T16:07:51.239Z,1.08
2023-02-25T16:10:25.332Z,0.80
2023-02-25T16:13:08.128Z,1.40
2023-02-25T16:15:37.437Z,1.30
2023-02-25T16:18:14.229Z,1.08
2023-02-25T16:20:46.466Z,1.58
2023-02-25T16:23:15.815Z,1.13
2023-02-25T16:25:47.675Z,1.23
2023-02-25T16:28:18.685Z,0.95
2023-02-25T16:30:51.644Z,1.20
2023-02-25T16:33:24.334Z,1.17
2023-02-25T16:36:02.677Z,0.90
2023-02-25T16:38:41.271Z,1.20
2023-02-25T16:41:09.233Z,1.58
2023-02-25T16:43:37.964Z,1.10
2023-02-25T16:46:06.871Z,1.42
2023-02-25T16:48:35.738Z,0.90
2023-02-25T16:51:08.604Z,1.25
2023-02-25T16:53:41.680Z,1.20
2023-02-25T16:56:19.783Z,0.88
2023-02-25T16:58:59.473Z,2.25
2023-02-25T17:01:29.013Z,0.70
2023-02-25T17:04:02.241Z,1.30
2023-02-25T17:06:29.961Z,1.45
2023-02-25T17:08:58.962Z,1.35
2023-02-25T17:11:27.850Z,1.45
2023-02-25T17:13:56.768Z,1.15
2023-02-25T17:16:28.457Z,0.95
2023-02-25T17:18:57.862Z,1.58
2023-02-25T17:21:29.295Z,1.20
2023-02-25T17:23:57.453Z,1.17
2023-02-25T17:26:26.816Z,1.20
2023-02-25T17:28:57.510Z,1.35
2023-02-25T17:31:26.888Z,1.45
2023-02-25T17:33:55.720Z,1.20
2023-02-25T17:36:27.105Z,1.30
2023-02-25T17:38:56.538Z,1.92
2023-02-25T17:41:24.780Z,1.25
2023-02-25T17:43:53.978Z,1.35
2023-02-25T17:46:28.545Z,0.98
2023-02-25T17:48:57.652Z,1.63
2023-02-25T17:51:31.117Z,1.70
2023-02-25T17:54:06.159Z,1.17
2023-02-25T17:56:34.457Z,1.25
2023-02-25T17:59:05.766Z,1.30
2023-02-25T18:01:47.390Z,1.40
2023-02-25T18:04:23.148Z,1.00
2023-02-25T18:06:50.803Z,1.15
2023-02-25T18:09:29.720Z,1.38
2023-02-25T18:11:58.583Z,1.02
2023-02-25T18:14:30.886Z,1.08
2023-02-25T18:16:59.296Z,1.73
2023-02-25T18:19:33.792Z,1.52
2023-02-25T18:22:01.994Z,0.77
2023-02-25T18:24:33.084Z,1.27
2023-02-25T18:27:02.144Z,1.70
2023-02-25T18:29:31.364Z,1.63
2023-02-25T18:31:59.054Z,1.08
2023-02-25T18:34:26.718Z,1.27
2023-02-25T18:36:54.356Z,1.48
2023-02-25T18:39:23.383Z,1.63
2023-02-25T18:41:51.236Z,1.42
2023-02-25T18:44:18.868Z,1.60
2023-02-25T18:46:48.045Z,1.70
2023-02-25T18:49:15.843Z,1.75
2023-02-25T18:51:43.519Z,2.08
2023-02-25T18:54:15.833Z,1.48
2023-02-25T18:56:43.455Z,2.42
2023-02-25T18:59:11.255Z,1.98
2023-02-25T19:01:39.483Z,2.85
2023-02-25T19:04:08.587Z,2.05
2023-02-25T19:06:37.005Z,2.88
2023-02-25T19:09:04.856Z,1.83
2023-02-25T19:11:35.164Z,2.03
2023-02-25T19:14:03.382Z,2.10
2023-02-25T19:16:31.101Z,1.90
2023-02-25T19:18:59.016Z,1.77
2023-02-25T19:21:28.240Z,1.60
2023-02-25T19:23:55.880Z,1.73
2023-02-25T19:26:25.140Z,1.77
2023-02-25T19:28:52.949Z,1.23
2023-02-25T19:31:20.688Z,1.38
2023-02-25T19:33:48.312Z,1.42
2023-02-25T19:36:16.259Z,1.45
2023-02-25T19:38:45.233Z,1.85
2023-02-25T19:41:14.327Z,1.30
2023-02-25T19:43:42.248Z,1.23
2023-02-25T19:46:12.168Z,1.75
2023-02-25T19:48:39.862Z,1.40
2023-02-25T19:51:08.011Z,1.80
2023-02-25T19:53:35.993Z,2.42
2023-02-25T19:56:05.512Z,1.42
2023-02-25T19:58:34.278Z,2.30
2023-02-25T20:01:02.621Z,1.15
2023-02-25T20:03:30.278Z,1.42
2023-02-25T20:05:58.053Z,1.42
2023-02-25T20:08:28.045Z,1.05
2023-02-25T20:10:55.639Z,1.90
2023-02-25T20:13:24.655Z,1.13
2023-02-25T20:15:52.265Z,1.67
2023-02-25T20:18:20.506Z,1.40
2023-02-25T20:20:48.257Z,1.92
2023-02-25T20:23:15.906Z,2.55
2023-02-25T20:25:43.564Z,1.35
2023-02-25T20:28:11.350Z,1.40
2023-02-25T20:30:40.363Z,1.60
2023-02-25T20:33:07.974Z,1.40
2023-02-25T20:35:36.015Z,1.63
2023-02-25T20:38:10.416Z,1.95
2023-02-25T20:40:38.164Z,1.42
2023-02-25T20:43:05.864Z,1.70
2023-02-25T20:45:33.983Z,1.92
2023-02-25T20:48:03.206Z,2.55
2023-02-25T20:50:31.293Z,1.83
2023-02-25T20:52:59.551Z,1.30
2023-02-25T20:55:27.232Z,2.33
2023-02-25T20:57:54.956Z,1.60
2023-02-25T21:00:22.655Z,1.77
2023-02-25T21:02:50.438Z,1.67
2023-02-25T21:05:19.597Z,2.13
2023-02-25T21:07:47.220Z,1.80
2023-02-25T21:10:14.820Z,2.15
2023-02-25T21:12:43.514Z,2.35
2023-02-25T21:15:11.743Z,1.90
2023-02-25T21:17:39.348Z,2.00
2023-02-25T21:20:07.938Z,1.80
2023-02-25T21:22:37.117Z,1.55
2023-02-25T21:25:05.118Z,1.75
2023-02-25T21:27:32.741Z,3.00
2023-02-25T21:30:01.296Z,2.72
2023-02-25T21:32:29.024Z,2.38
2023-02-25T21:34:56.796Z,1.90
2023-02-25T21:37:24.485Z,2.30
2023-02-25T21:39:53.494Z,2.08
2023-02-25T21:42:21.754Z,1.92
2023-02-25T21:44:49.397Z,2.33
2023-02-25T21:47:17.094Z,2.40
2023-02-25T21:49:45.656Z,2.60
2023-02-25T21:52:13.330Z,3.53
2023-02-25T21:54:41.652Z,2.10
2023-02-25T21:57:10.864Z,3.05
2023-02-25T21:59:38.465Z,2.33
2023-02-25T22:02:06.113Z,1.88
2023-02-25T22:04:33.846Z,2.88
2023-02-25T22:07:01.505Z,3.72
2023-02-25T22:09:29.326Z,4.20
2023-02-25T22:11:57.123Z,5.50
2023-02-25T22:14:26.307Z,5.18
2023-02-25T22:16:53.987Z,3.75
2023-02-25T22:19:22.281Z,4.60
2023-02-25T22:21:50.230Z,4.30
2023-02-25T22:24:18.036Z,4.05
2023-02-25T22:26:47.811Z,3.95
2023-02-25T22:29:15.452Z,3.83
2023-02-25T22:31:44.579Z,5.38
2023-02-25T22:34:12.644Z,4.55
2023-02-25T22:36:40.319Z,3.10
2023-02-25T22:39:08.498Z,2.60
2023-02-25T22:41:36.314Z,2.90
2023-02-25T22:44:04.418Z,3.05
2023-02-25T22:46:33.052Z,2.30
2023-02-25T22:49:02.140Z,2.47
2023-02-25T22:51:30.700Z,2.15
2023-02-25T22:53:58.644Z,2.90
2023-02-25T22:56:26.728Z,2.28
2023-02-25T22:58:54.593Z,2.08
2023-02-25T23:01:23.831Z,2.08
2023-02-25T23:03:52.482Z,2.67
2023-02-25T23:06:26.763Z,2.80
2023-02-25T23:09:01.952Z,2.22
2023-02-25T23:11:31.002Z,1.73
2023-02-25T23:14:00.738Z,2.80
2023-02-25T23:16:29.668Z,2.55
2023-02-25T23:18:57.997Z,2.90
2023-02-25T23:21:27.854Z,2.80
2023-02-25T23:23:56.674Z,2.30
2023-02-25T23:26:28.550Z,2.47
2023-02-25T23:28:57.179Z,3.00
2023-02-25T23:31:25.566Z,3.15
2023-02-25T23:33:55.960Z,1.85
2023-02-25T23:36:24.111Z,2.75
2023-02-25T23:38:55.322Z,3.03
2023-02-25T23:41:23.138Z,2.67
2023-02-25T23:43:53.280Z,3.65
2023-02-25T23:46:21.083Z,3.00
2023-02-25T23:48:48.885Z,2.67
2023-02-25T23:51:17.141Z,3.13
2023-02-25T23:53:44.764Z,3.28
2023-02-25T23:56:14.540Z,3.40
2023-02-25T23:58:42.269Z,2.83
